Time;durP1;ratioP1;P1;durP2;ratioP2;P2;SDS_P1;SDS_P2;PMS_P1;PMS_P2;Temp;Humidity;BMP_temperature;BMP_pressure;BME280_temperature;BME280_humidity;BME280_pressure;Samples;Min_cycle;Max_cycle;Signal;HPM_P1;HPM_P2
2021/03/22 00:00:59;;;;;;;8.43;3.70;;;0.10;99.90;;;;;;4425920;32;20206;-72
2021/03/22 00:03:29;;;;;;;10.60;3.80;;;0.10;99.90;;;;;;4425765;32;20181;-71
2021/03/22 00:05:58;;;;;;;11.87;3.70;;;0.10;99.90;;;;;;4425720;32;20500;-71
2021/03/22 00:08:25;;;;;;;9.80;3.20;;;0.10;99.90;;;;;;4424892;32;20158;-71
2021/03/22 00:10:52;;;;;;;7.83;3.10;;;0.10;99.90;;;;;;4425043;32;20151;-71
2021/03/22 00:13:20;;;;;;;10.23;3.40;;;0.10;99.90;;;;;;4424337;32;20139;-71
2021/03/22 00:15:48;;;;;;;6.03;2.90;;;0.00;99.90;;;;;;4424749;32;20147;-71
2021/03/22 00:18:18;;;;;;;6.50;3.07;;;-0.10;99.90;;;;;;4424670;32;20210;-71
2021/03/22 00:20:48;;;;;;;8.03;3.10;;;-0.10;99.90;;;;;;4424267;32;20138;-71
2021/03/22 00:23:21;;;;;;;7.93;2.90;;;-0.10;99.90;;;;;;4424189;32;20138;-72
2021/03/22 00:25:53;;;;;;;7.07;3.00;;;-0.10;99.90;;;;;;4425570;32;20154;-72
2021/03/22 00:28:22;;;;;;;5.33;2.47;;;-0.10;99.90;;;;;;4425119;32;20216;-72
2021/03/22 00:30:52;;;;;;;9.27;3.00;;;-0.20;99.90;;;;;;4424737;32;20170;-72
2021/03/22 00:33:21;;;;;;;9.50;3.13;;;-0.20;99.90;;;;;;4424976;32;20204;-72
2021/03/22 00:35:51;;;;;;;6.87;3.07;;;-0.20;99.90;;;;;;4424796;32;20172;-72
2021/03/22 00:38:18;;;;;;;5.27;2.50;;;-0.20;99.90;;;;;;4424175;32;20172;-73
2021/03/22 00:40:46;;;;;;;7.57;2.63;;;-0.20;99.90;;;;;;4424607;32;20158;-73
2021/03/22 00:43:13;;;;;;;8.30;2.97;;;-0.20;99.90;;;;;;4425092;32;20480;-73
2021/03/22 00:45:54;;;;;;;5.43;2.77;;;-0.20;99.90;;;;;;4425717;32;20154;-73
2021/03/22 00:48:21;;;;;;;7.77;2.53;;;-0.20;99.90;;;;;;4425685;32;20150;-73
2021/03/22 00:50:48;;;;;;;6.70;2.90;;;-0.20;99.90;;;;;;4424194;32;20469;-73
2021/03/22 00:53:15;;;;;;;7.13;2.97;;;-0.20;99.90;;;;;;4428052;32;20215;-73
2021/03/22 00:55:42;;;;;;;7.47;2.93;;;-0.20;99.90;;;;;;4428651;32;20401;-73
2021/03/22 00:58:09;;;;;;;6.17;2.67;;;-0.20;99.90;;;;;;4427341;32;20188;-73
2021/03/22 01:00:43;;;;;;;8.57;2.83;;;-0.20;99.90;;;;;;4428550;32;20134;-73
2021/03/22 01:03:16;;;;;;;7.30;2.87;;;-0.20;99.90;;;;;;4428721;32;20147;-73
2021/03/22 01:05:43;;;;;;;6.97;2.63;;;-0.30;99.90;;;;;;4426913;32;20159;-73
2021/03/22 01:08:10;;;;;;;9.20;2.90;;;-0.30;99.90;;;;;;4427209;32;20449;-74
2021/03/22 01:10:52;;;;;;;8.57;3.00;;;-0.30;99.90;;;;;;4427888;32;20135;-73
2021/03/22 01:13:27;;;;;;;8.03;2.67;;;-0.30;99.90;;;;;;4428713;32;20146;-75
2021/03/22 01:16:14;;;;;;;5.27;2.57;;;-0.40;99.90;;;;;;4427307;32;20178;-74
2021/03/22 01:18:46;;;;;;;6.53;2.67;;;-0.40;99.90;;;;;;4428543;32;20444;-75
2021/03/22 01:21:45;;;;;;;7.00;2.90;;;-0.40;99.90;;;;;;4426843;32;20338;-75
2021/03/22 01:24:13;;;;;;;7.60;2.77;;;-0.40;99.90;;;;;;4417519;32;20189;-76
2021/03/22 01:26:41;;;;;;;7.87;2.80;;;-0.40;99.90;;;;;;4426542;32;20170;-76
2021/03/22 01:29:14;;;;;;;5.00;2.60;;;-0.50;99.90;;;;;;4427511;32;20213;-76
2021/03/22 01:31:41;;;;;;;10.43;2.97;;;-0.50;99.90;;;;;;4428270;32;20463;-76
2021/03/22 01:34:08;;;;;;;5.77;2.63;;;-0.50;99.90;;;;;;4426773;32;20147;-76
2021/03/22 01:36:35;;;;;;;8.23;2.90;;;-0.50;99.90;;;;;;4428338;32;20147;-76
2021/03/22 01:39:14;;;;;;;13.03;2.70;;;-0.50;99.90;;;;;;4426556;32;20517;-76
2021/03/22 01:41:49;;;;;;;7.27;2.90;;;-0.50;99.90;;;;;;4426637;32;20138;-76
2021/03/22 01:44:24;;;;;;;6.77;2.70;;;-0.60;99.90;;;;;;4426627;32;20147;-76
2021/03/22 01:46:58;;;;;;;7.80;3.03;;;-0.60;99.90;;;;;;4427451;32;20174;-76
2021/03/22 01:49:28;;;;;;;9.03;3.07;;;-0.60;99.90;;;;;;4428268;32;20138;-76
2021/03/22 01:51:55;;;;;;;5.83;2.70;;;-0.60;99.90;;;;;;4426501;32;20151;-76
2021/03/22 01:54:22;;;;;;;7.20;3.07;;;-0.50;99.90;;;;;;4426382;32;20146;-76
2021/03/22 01:56:50;;;;;;;6.47;3.23;;;-0.50;99.90;;;;;;4427749;32;20139;-76
2021/03/22 01:59:26;;;;;;;7.07;3.60;;;-0.60;99.90;;;;;;4427250;32;20515;-76
2021/03/22 02:01:59;;;;;;;9.23;3.90;;;-0.60;99.90;;;;;;4427188;32;20202;-76
2021/03/22 02:04:26;;;;;;;7.03;3.43;;;-0.60;99.90;;;;;;4427232;32;20135;-76
2021/03/22 02:06:53;;;;;;;8.53;3.97;;;-0.70;99.90;;;;;;4425014;32;20433;-76
2021/03/22 02:09:20;;;;;;;9.53;3.67;;;-0.70;99.90;;;;;;4426155;32;20412;-75
2021/03/22 02:11:46;;;;;;;9.43;3.73;;;-0.70;99.90;;;;;;4428157;32;20162;-76
2021/03/22 02:14:13;;;;;;;9.83;4.13;;;-0.60;99.90;;;;;;4427598;32;20147;-75
2021/03/22 02:17:14;;;;;;;10.93;3.77;;;-0.60;99.90;;;;;;4426830;32;20403;-76
2021/03/22 02:20:02;;;;;;;8.90;4.10;;;-0.70;99.90;;;;;;4427010;32;20146;-75
2021/03/22 02:22:54;;;;;;;7.80;3.50;;;-0.70;99.90;;;;;;4426061;32;20158;-76
2021/03/22 02:25:55;;;;;;;10.97;3.90;;;-0.70;99.90;;;;;;4427620;32;20147;-76
2021/03/22 02:29:06;;;;;;;8.73;3.43;;;-0.70;99.90;;;;;;4425768;32;20154;-75
2021/03/22 02:31:59;;;;;;;8.40;3.77;;;-0.80;99.90;;;;;;4363481;32;20148;-74
2021/03/22 02:34:36;;;;;;;8.30;3.50;;;-0.70;99.90;;;;;;4364713;32;20599;-75
2021/03/22 02:37:38;;;;;;;9.90;3.33;;;-0.80;99.90;;;;;;4363114;32;20215;-75
2021/03/22 02:40:34;;;;;;;7.17;3.03;;;-0.80;99.90;;;;;;4362658;32;20163;-74
2021/03/22 02:43:03;;;;;;;7.17;2.80;;;-0.80;99.90;;;;;;4363414;32;20168;-75
2021/03/22 02:45:42;;;;;;;6.97;2.90;;;-0.80;99.90;;;;;;4363145;33;20227;-75
2021/03/22 02:48:16;;;;;;;7.67;2.60;;;-0.70;99.90;;;;;;4364068;32;20186;-75
2021/03/22 02:50:45;;;;;;;9.37;2.70;;;-0.80;99.90;;;;;;4364875;32;20187;-75
2021/03/22 02:53:30;;;;;;;8.13;2.90;;;-0.80;99.90;;;;;;4362847;32;20159;-75
2021/03/22 02:55:56;;;;;;;5.03;2.50;;;-0.80;99.90;;;;;;4364927;32;20223;-75
2021/03/22 02:58:31;;;;;;;7.57;2.83;;;-0.80;99.90;;;;;;4362531;32;20152;-75
2021/03/22 03:01:33;;;;;;;9.73;2.67;;;-0.80;99.90;;;;;;4363924;32;20196;-75
2021/03/22 03:04:02;;;;;;;6.53;2.50;;;-0.80;99.90;;;;;;4363219;32;20148;-75
2021/03/22 03:06:50;;;;;;;9.17;3.00;;;-0.80;99.90;;;;;;4362547;32;20609;-75
2021/03/22 03:09:19;;;;;;;8.43;2.63;;;-0.80;99.90;;;;;;4425321;32;20139;-75
2021/03/22 03:11:46;;;;;;;8.07;2.73;;;-0.70;99.90;;;;;;4425256;32;20534;-75
2021/03/22 03:14:13;;;;;;;6.70;3.03;;;-0.80;99.90;;;;;;4424389;32;20436;-75
2021/03/22 03:16:39;;;;;;;8.53;3.13;;;-0.80;99.90;;;;;;4426607;32;20198;-75
2021/03/22 03:19:08;;;;;;;9.47;3.03;;;-0.80;99.90;;;;;;4426073;32;20435;-75
2021/03/22 03:21:35;;;;;;;8.00;3.00;;;-0.80;99.90;;;;;;4425145;32;20459;-75
2021/03/22 03:24:07;;;;;;;8.73;3.17;;;-0.80;99.90;;;;;;4424973;32;20134;-74
2021/03/22 03:26:34;;;;;;;8.60;3.00;;;-0.80;99.90;;;;;;4425024;32;20245;-75
2021/03/22 03:29:01;;;;;;;6.40;3.00;;;-0.80;99.90;;;;;;4424846;32;20159;-74
2021/03/22 03:31:28;;;;;;;6.27;2.63;;;-0.90;99.90;;;;;;4424967;32;20218;-75
2021/03/22 03:33:54;;;;;;;9.53;2.97;;;-0.80;99.90;;;;;;4424902;32;20143;-75
2021/03/22 03:36:21;;;;;;;7.80;2.97;;;-0.90;99.90;;;;;;4424728;32;20174;-75
2021/03/22 03:38:47;;;;;;;9.53;2.80;;;-0.80;99.90;;;;;;4425771;32;20150;-74
2021/03/22 03:41:13;;;;;;;10.07;2.80;;;-0.70;99.90;;;;;;4423825;32;20182;-75
2021/03/22 03:43:40;;;;;;;7.17;2.30;;;-0.70;99.90;;;;;;4424821;32;20169;-75
2021/03/22 03:46:06;;;;;;;8.73;3.00;;;-0.80;99.90;;;;;;4424891;32;20139;-75
2021/03/22 03:48:33;;;;;;;7.70;2.53;;;-0.80;99.90;;;;;;4425007;32;20460;-75
2021/03/22 03:51:01;;;;;;;7.27;2.40;;;-0.80;99.90;;;;;;4425146;32;20146;-74
2021/03/22 03:53:28;;;;;;;8.63;2.70;;;-0.70;99.90;;;;;;4424732;32;20142;-74
2021/03/22 03:55:56;;;;;;;5.73;2.40;;;-0.70;99.90;;;;;;4424717;32;20131;-74
2021/03/22 03:58:23;;;;;;;6.90;2.70;;;-0.70;99.90;;;;;;4424745;32;20474;-74
2021/03/22 04:00:50;;;;;;;6.80;2.77;;;-0.70;99.90;;;;;;4424621;32;20210;-74
2021/03/22 04:03:31;;;;;;;6.60;2.50;;;-0.70;99.90;;;;;;4424672;32;20143;-74
2021/03/22 04:06:09;;;;;;;8.37;3.00;;;-0.70;99.90;;;;;;4424495;32;20155;-74
2021/03/22 04:08:39;;;;;;;7.40;2.73;;;-0.70;99.90;;;;;;4425221;32;20177;-74
2021/03/22 04:11:09;;;;;;;6.70;2.60;;;-0.70;99.90;;;;;;4424531;32;20146;-74
2021/03/22 04:13:36;;;;;;;8.77;2.83;;;-0.60;99.90;;;;;;4426005;32;20165;-74
2021/03/22 04:16:05;;;;;;;9.00;2.90;;;-0.70;99.90;;;;;;4424935;32;20242;-74
2021/03/22 04:18:37;;;;;;;9.37;3.13;;;-0.70;99.90;;;;;;4426245;32;20159;-73
2021/03/22 04:21:05;;;;;;;7.13;2.63;;;-0.70;99.90;;;;;;4425867;32;20499;-74
2021/03/22 04:23:33;;;;;;;12.17;3.13;;;-0.70;99.90;;;;;;4424411;32;20131;-74
2021/03/22 04:26:00;;;;;;;8.60;3.00;;;-0.70;99.90;;;;;;4425675;32;20407;-74
2021/03/22 04:28:27;;;;;;;7.63;2.97;;;-0.60;99.90;;;;;;4427509;32;20162;-74
2021/03/22 04:30:53;;;;;;;9.27;3.10;;;-0.70;99.90;;;;;;4427700;32;20223;-74
2021/03/22 04:33:20;;;;;;;6.03;2.90;;;-0.70;99.90;;;;;;4427760;32;20131;-74
2021/03/22 04:35:46;;;;;;;5.73;3.23;;;-0.70;99.90;;;;;;4427481;32;20198;-73
2021/03/22 04:38:13;;;;;;;11.20;3.33;;;-0.70;99.90;;;;;;4426833;32;20475;-74
2021/03/22 04:40:39;;;;;;;11.23;3.60;;;-0.70;99.90;;;;;;4427384;32;20151;-73
2021/03/22 04:43:06;;;;;;;9.37;3.10;;;-0.80;99.90;;;;;;4428864;32;20369;-73
2021/03/22 04:45:32;;;;;;;8.00;3.53;;;-0.80;99.90;;;;;;4428735;32;20170;-73
2021/03/22 04:47:59;;;;;;;13.37;3.67;;;-0.70;99.90;;;;;;4427281;32;20143;-73
2021/03/22 04:50:28;;;;;;;8.07;3.50;;;-0.70;99.90;;;;;;4428722;32;20130;-73
2021/03/22 04:52:55;;;;;;;9.80;4.07;;;-0.70;99.90;;;;;;4427010;32;20392;-74
2021/03/22 04:55:24;;;;;;;10.87;4.23;;;-0.70;99.90;;;;;;4426650;32;20247;-73
2021/03/22 04:57:51;;;;;;;9.33;3.70;;;-0.80;99.90;;;;;;4427068;32;20198;-73
2021/03/22 05:00:31;;;;;;;9.93;4.10;;;-0.90;99.90;;;;;;4427070;32;20142;-73
2021/03/22 05:02:58;;;;;;;11.33;4.10;;;-0.80;99.90;;;;;;4427399;32;20143;-73
2021/03/22 05:05:26;;;;;;;11.37;4.73;;;-0.80;99.90;;;;;;4425951;32;20199;-75
2021/03/22 05:07:53;;;;;;;11.40;4.53;;;-0.90;99.90;;;;;;4428539;32;20511;-73
2021/03/22 05:10:27;;;;;;;14.17;5.30;;;-1.00;99.90;;;;;;4426957;32;20139;-75
2021/03/22 05:12:53;;;;;;;9.43;4.60;;;-0.90;99.90;;;;;;4428537;32;20143;-74
2021/03/22 05:15:20;;;;;;;11.70;4.97;;;-0.90;99.90;;;;;;4426843;32;20503;-75
2021/03/22 05:17:47;;;;;;;11.63;4.90;;;-0.90;99.90;;;;;;4427164;32;20161;-74
2021/03/22 05:20:31;;;;;;;15.47;5.60;;;-0.90;99.90;;;;;;4426826;32;20181;-75
2021/03/22 05:23:05;;;;;;;16.03;5.17;;;-0.80;99.90;;;;;;4428168;32;20135;-74
2021/03/22 05:25:31;;;;;;;13.57;5.37;;;-0.80;99.90;;;;;;4426736;32;20207;-74
2021/03/22 05:27:58;;;;;;;13.63;5.60;;;-0.70;99.90;;;;;;4426525;32;20151;-74
2021/03/22 05:30:26;;;;;;;12.57;5.27;;;-0.70;99.90;;;;;;4427305;32;20389;-74
2021/03/22 05:32:57;;;;;;;13.00;5.53;;;-0.80;99.90;;;;;;4428344;32;20411;-75
2021/03/22 05:35:25;;;;;;;11.43;5.17;;;-0.70;99.90;;;;;;4428076;32;20177;-75
2021/03/22 05:37:52;;;;;;;13.87;5.63;;;-0.70;99.90;;;;;;4426132;32;20159;-75
2021/03/22 05:40:31;;;;;;;15.47;6.00;;;-0.60;99.90;;;;;;4426073;32;20251;-74
2021/03/22 05:43:16;;;;;;;17.30;6.60;;;-0.50;99.90;;;;;;4427087;32;20143;-74
2021/03/22 05:46:04;;;;;;;20.30;6.97;;;-0.50;99.90;;;;;;4426663;32;20150;-75
2021/03/22 05:48:49;;;;;;;25.00;8.13;;;-0.50;99.90;;;;;;4426594;32;20228;-73
2021/03/22 05:51:35;;;;;;;20.23;7.00;;;-0.50;99.90;;;;;;4426376;32;20473;-73
2021/03/22 05:54:37;;;;;;;18.73;7.20;;;-0.40;99.90;;;;;;4426298;32;20142;-73
2021/03/22 05:57:22;;;;;;;21.20;8.33;;;-0.30;99.90;;;;;;4363823;33;20369;-73
2021/03/22 05:59:57;;;;;;;20.37;8.23;;;-0.30;99.90;;;;;;4365076;32;20548;-74
2021/03/22 06:02:29;;;;;;;22.93;8.47;;;-0.40;99.90;;;;;;4363688;32;20191;-74
2021/03/22 06:05:06;;;;;;;19.70;8.60;;;-0.40;99.90;;;;;;4364590;32;20144;-72
2021/03/22 06:07:40;;;;;;;16.97;8.10;;;-0.40;99.90;;;;;;4363445;32;20181;-73
2021/03/22 06:10:14;;;;;;;20.97;8.23;;;-0.30;99.90;;;;;;4363768;32;20144;-72
2021/03/22 06:12:43;;;;;;;18.23;7.87;;;-0.20;99.90;;;;;;4365133;32;20159;-73
2021/03/22 06:15:44;;;;;;;20.60;7.90;;;-0.20;99.90;;;;;;4363666;32;20239;-73
2021/03/22 06:18:46;;;;;;;18.67;7.30;;;-0.10;99.90;;;;;;4365060;32;20459;-73
2021/03/22 06:21:14;;;;;;;19.50;7.63;;;-0.10;99.90;;;;;;4304678;33;20485;-74
2021/03/22 06:23:46;;;;;;;21.97;7.40;;;-0.20;99.90;;;;;;4304512;33;20157;-73
2021/03/22 06:26:19;;;;;;;15.73;7.50;;;-0.10;99.90;;;;;;4305146;33;20214;-73
2021/03/22 06:28:48;;;;;;;17.70;7.90;;;0.10;99.90;;;;;;4304502;33;20201;-72
2021/03/22 06:31:19;;;;;;;19.43;7.67;;;0.10;99.90;;;;;;4305943;33;20160;-74
2021/03/22 06:33:47;;;;;;;16.67;8.30;;;0.20;99.90;;;;;;4323055;33;20170;-74
2021/03/22 06:36:17;;;;;;;16.20;7.70;;;0.30;99.90;;;;;;4363410;32;20250;-73
2021/03/22 06:38:51;;;;;;;22.37;7.70;;;0.40;99.90;;;;;;4362851;32;20153;-73
2021/03/22 06:41:33;;;;;;;18.90;7.70;;;0.50;99.90;;;;;;4364674;32;20147;-73
2021/03/22 06:44:06;;;;;;;16.87;7.67;;;0.60;99.90;;;;;;4350252;33;20214;-74
2021/03/22 06:47:01;;;;;;;18.70;7.60;;;0.60;99.90;;;;;;4365117;32;20186;-72
2021/03/22 06:49:35;;;;;;;16.30;7.17;;;0.50;99.90;;;;;;4361995;32;20175;-72
2021/03/22 06:52:11;;;;;;;16.80;7.60;;;0.60;99.90;;;;;;4363511;32;20566;-73
2021/03/22 06:54:43;;;;;;;15.00;7.10;;;0.60;99.90;;;;;;4362622;32;20549;-72
2021/03/22 06:57:15;;;;;;;15.50;7.03;;;0.80;99.90;;;;;;4373439;32;20151;-72
2021/03/22 07:00:15;;;;;;;18.63;7.20;;;1.00;99.90;;;;;;4424938;32;20158;-72
2021/03/22 07:02:51;;;;;;;17.50;6.43;;;1.00;99.90;;;;;;4426925;32;20163;-71
2021/03/22 07:05:24;;;;;;;15.60;6.90;;;1.00;99.90;;;;;;4425403;32;20139;-72
2021/03/22 07:08:09;;;;;;;19.77;6.20;;;1.20;99.90;;;;;;4426465;32;20437;-72
2021/03/22 07:10:55;;;;;;;18.67;7.03;;;1.30;99.90;;;;;;4426160;32;20150;-71
2021/03/22 07:13:26;;;;;;;15.90;6.40;;;1.40;99.90;;;;;;4425992;32;20312;-70
2021/03/22 07:16:12;;;;;;;14.67;6.27;;;1.30;99.90;;;;;;4424903;32;20470;-72
2021/03/22 07:18:41;;;;;;;17.47;6.13;;;1.40;99.90;;;;;;4425388;32;20139;-71
2021/03/22 07:21:16;;;;;;;14.83;6.23;;;1.50;99.90;;;;;;4425178;32;20202;-73
2021/03/22 07:23:44;;;;;;;16.43;6.87;;;1.60;99.90;;;;;;4425561;32;20147;-72
2021/03/22 07:26:42;;;;;;;19.97;7.00;;;1.70;99.90;;;;;;4426123;32;20227;-73
2021/03/22 07:29:36;;;;;;;16.53;6.40;;;1.50;99.90;;;;;;4425680;32;20216;-73
2021/03/22 07:32:13;;;;;;;15.77;6.47;;;1.60;99.90;;;;;;4424357;32;20185;-72
2021/03/22 07:35:19;;;;;;;13.97;6.20;;;1.70;99.90;;;;;;4424881;32;20477;-74
2021/03/22 07:38:16;;;;;;;14.37;6.10;;;2.00;99.90;;;;;;4425365;32;20139;-71
2021/03/22 07:41:13;;;;;;;15.13;6.13;;;2.30;99.90;;;;;;4426089;32;20395;-72
2021/03/22 07:43:43;;;;;;;14.07;6.07;;;2.30;99.90;;;;;;4424553;32;20156;-71
2021/03/22 07:46:43;;;;;;;15.40;6.33;;;2.50;99.90;;;;;;4424555;32;20257;-72
2021/03/22 07:49:32;;;;;;;15.60;6.10;;;2.50;99.90;;;;;;4424780;32;20186;-73
2021/03/22 07:52:18;;;;;;;12.87;5.70;;;2.30;99.90;;;;;;4424569;32;20151;-71
2021/03/22 07:55:01;;;;;;;15.23;6.03;;;2.30;99.90;;;;;;4425633;32;20165;-73
2021/03/22 07:58:08;;;;;;;14.43;5.63;;;2.10;99.90;;;;;;4424567;32;20553;-72
2021/03/22 08:01:02;;;;;;;11.77;5.53;;;2.30;99.90;;;;;;4361960;32;20164;-73
2021/03/22 08:03:59;;;;;;;12.60;5.57;;;2.30;99.90;;;;;;4349915;33;20211;-72
2021/03/22 08:06:50;;;;;;;20.27;7.73;;;2.20;99.90;;;;;;4362098;32;20148;-73
2021/03/22 08:09:38;;;;;;;19.30;6.00;;;2.30;99.90;;;;;;4361004;32;20179;-72
2021/03/22 08:12:20;;;;;;;13.70;6.23;;;2.50;99.90;;;;;;4362901;32;20148;-73
2021/03/22 08:15:00;;;;;;;11.23;5.80;;;3.10;99.90;;;;;;4362503;32;20190;-73
2021/03/22 08:17:50;;;;;;;10.70;4.77;;;3.50;99.90;;;;;;4361590;33;20148;-71
2021/03/22 08:20:35;;;;;;;9.57;4.40;;;3.40;99.90;;;;;;4361897;32;20145;-73
2021/03/22 08:23:27;;;;;;;9.93;4.40;;;3.40;99.90;;;;;;4361506;33;20401;-71
2021/03/22 08:25:58;;;;;;;10.10;4.70;;;3.10;99.90;;;;;;4362026;33;20154;-72
2021/03/22 08:28:41;;;;;;;13.23;5.20;;;3.10;99.90;;;;;;4363105;33;20148;-72
2021/03/22 08:31:41;;;;;;;12.90;4.90;;;2.90;99.90;;;;;;4362518;33;20167;-72
2021/03/22 08:34:38;;;;;;;11.47;5.20;;;2.40;99.90;;;;;;4361780;33;20238;-72
2021/03/22 08:37:23;;;;;;;14.33;5.43;;;2.30;99.90;;;;;;4378517;32;20155;-72
2021/03/22 08:40:13;;;;;;;12.37;5.43;;;2.50;99.90;;;;;;4409758;32;20194;-71
2021/03/22 08:42:47;;;;;;;11.80;5.03;;;2.60;99.90;;;;;;4424589;32;20155;-71
2021/03/22 08:45:28;;;;;;;10.40;4.80;;;2.70;99.90;;;;;;4423580;32;20204;-72
2021/03/22 08:48:10;;;;;;;9.37;4.60;;;2.80;99.90;;;;;;4423818;32;20208;-72
2021/03/22 08:50:39;;;;;;;11.13;4.47;;;3.10;99.90;;;;;;4424151;32;20170;-72
2021/03/22 08:53:15;;;;;;;12.03;4.83;;;3.10;99.90;;;;;;4423905;32;20223;-71
2021/03/22 08:55:47;;;;;;;13.07;5.20;;;3.10;99.90;;;;;;4423553;32;20139;-72
2021/03/22 08:58:47;;;;;;;12.53;5.30;;;3.20;99.90;;;;;;4424519;32;20204;-72
2021/03/22 09:01:30;;;;;;;12.07;5.90;;;3.20;99.90;;;;;;4424218;32;20492;-72
2021/03/22 09:04:28;;;;;;;13.63;6.20;;;3.50;99.90;;;;;;4425488;32;20158;-72
2021/03/22 09:07:00;;;;;;;13.07;5.83;;;4.00;99.90;;;;;;4423946;32;20250;-73
2021/03/22 09:09:32;;;;;;;13.43;6.13;;;4.60;99.90;;;;;;4424355;32;20176;-71
2021/03/22 09:12:09;;;;;;;13.47;6.30;;;4.90;99.90;;;;;;4424024;32;20185;-72
2021/03/22 09:14:40;;;;;;;10.27;6.50;;;5.20;99.90;;;;;;4427203;32;20446;-75
2021/03/22 09:17:46;;;;;;;11.37;5.87;;;5.30;99.90;;;;;;4428449;32;20388;-73
2021/03/22 09:20:19;;;;;;;10.80;5.13;;;4.90;99.90;;;;;;4426748;32;20459;-73
2021/03/22 09:22:50;;;;;;;11.77;5.07;;;4.50;99.90;;;;;;4427841;32;20400;-73
2021/03/22 09:25:59;;;;;;;12.17;5.17;;;4.50;99.90;;;;;;4426933;32;20174;-73
2021/03/22 09:28:28;;;;;;;9.00;4.30;;;4.30;99.90;;;;;;4428050;32;20165;-72
2021/03/22 09:31:06;;;;;;;10.90;4.37;;;4.10;99.90;;;;;;4427527;32;20145;-72
2021/03/22 09:33:53;;;;;;;8.10;3.90;;;4.00;99.90;;;;;;4426673;32;20200;-73
2021/03/22 09:36:45;;;;;;;9.70;4.50;;;4.30;99.90;;;;;;4426900;32;20196;-72
2021/03/22 09:39:20;;;;;;;10.00;4.37;;;4.30;99.90;;;;;;4426687;32;20143;-72
2021/03/22 09:42:07;;;;;;;9.83;4.40;;;4.40;99.90;;;;;;4425613;32;20143;-71
2021/03/22 09:44:58;;;;;;;10.10;4.50;;;4.80;99.90;;;;;;4426949;32;20199;-71
2021/03/22 09:47:31;;;;;;;9.53;4.50;;;5.30;99.90;;;;;;4426721;32;20201;-72
2021/03/22 09:50:00;;;;;;;10.63;4.83;;;6.00;99.90;;;;;;4426870;32;20363;-71
2021/03/22 09:53:11;;;;;;;9.57;4.20;;;6.80;97.50;;;;;;4426303;32;20142;-71
2021/03/22 09:55:53;;;;;;;8.10;3.77;;;7.20;91.50;;;;;;4427740;32;20382;-73
2021/03/22 09:58:34;;;;;;;8.40;3.53;;;7.80;90.50;;;;;;4425671;32;20201;-72
2021/03/22 10:01:27;;;;;;;9.77;2.93;;;7.60;85.00;;;;;;4426130;32;20404;-73
2021/03/22 10:04:18;;;;;;;7.60;2.70;;;7.30;81.20;;;;;;4425945;32;20408;-73
2021/03/22 10:06:55;;;;;;;7.23;3.30;;;7.60;81.50;;;;;;4426305;32;20170;-73
2021/03/22 10:09:43;;;;;;;6.23;2.80;;;7.60;80.40;;;;;;4426399;32;20185;-70
2021/03/22 10:12:32;;;;;;;4.93;2.80;;;7.50;79.30;;;;;;4427444;32;20144;-70
2021/03/22 10:15:11;;;;;;;8.63;2.90;;;8.00;79.50;;;;;;4364497;32;20511;-69
2021/03/22 10:17:49;;;;;;;5.97;2.73;;;8.90;79.20;;;;;;4363417;32;20178;-69
2021/03/22 10:20:56;;;;;;;6.83;2.30;;;9.20;75.10;;;;;;4363294;32;20494;-68
2021/03/22 10:23:57;;;;;;;6.57;2.33;;;8.00;73.40;;;;;;4363094;32;20159;-70
2021/03/22 10:26:36;;;;;;;4.57;2.13;;;7.90;75.20;;;;;;4362656;32;20164;-72
2021/03/22 10:29:20;;;;;;;6.63;2.83;;;8.00;75.00;;;;;;4363885;32;20198;-69
2021/03/22 10:32:13;;;;;;;5.30;2.57;;;8.10;75.50;;;;;;4364664;32;20282;-69
2021/03/22 10:34:41;;;;;;;7.73;2.70;;;7.60;76.90;;;;;;4364663;32;20178;-69
2021/03/22 10:37:29;;;;;;;6.47;3.10;;;7.40;78.90;;;;;;4362778;32;20431;-70
2021/03/22 10:40:07;;;;;;;5.77;2.40;;;8.00;80.70;;;;;;4364938;32;20165;-70
2021/03/22 10:42:35;;;;;;;4.40;2.27;;;8.50;76.80;;;;;;4362519;32;20197;-69
2021/03/22 10:45:17;;;;;;;4.40;2.50;;;8.50;75.00;;;;;;4362905;32;20163;-68
2021/03/22 10:47:44;;;;;;;4.80;2.20;;;8.80;74.80;;;;;;4362275;32;20233;-69
2021/03/22 10:50:20;;;;;;;3.00;1.93;;;9.10;72.40;;;;;;4363001;32;20171;-69
2021/03/22 10:53:16;;;;;;;4.93;2.40;;;8.30;72.70;;;;;;4413871;32;20147;-68
2021/03/22 10:55:46;;;;;;;7.90;2.63;;;8.20;73.00;;;;;;4425248;32;20150;-70
2021/03/22 10:58:44;;;;;;;5.07;2.53;;;8.60;76.40;;;;;;4423721;32;20424;-70
2021/03/22 11:01:11;;;;;;;4.20;2.20;;;9.00;70.80;;;;;;4421007;32;20571;-69
2021/03/22 11:03:38;;;;;;;5.77;2.53;;;10.30;71.10;;;;;;4425082;32;20401;-70
2021/03/22 11:06:13;;;;;;;4.23;2.43;;;11.50;67.50;;;;;;4424045;32;20147;-69
2021/03/22 11:08:57;;;;;;;6.17;2.30;;;11.10;63.00;;;;;;4425295;32;20138;-69
2021/03/22 11:11:24;;;;;;;5.90;2.23;;;11.40;60.80;;;;;;4425420;32;20470;-70
2021/03/22 11:13:53;;;;;;;5.90;2.50;;;11.70;60.70;;;;;;4426449;32;20188;-70
2021/03/22 11:16:35;;;;;;;5.93;2.00;;;12.70;60.00;;;;;;4425543;32;20150;-72
2021/03/22 11:19:23;;;;;;;5.70;2.13;;;13.50;55.40;;;;;;4425599;32;20164;-71
2021/03/22 11:21:53;;;;;;;6.57;2.00;;;13.80;53.90;;;;;;4425208;32;20171;-72
2021/03/22 11:24:32;;;;;;;4.00;1.97;;;14.00;52.10;;;;;;4424922;32;20448;-70
2021/03/22 11:27:01;;;;;;;6.57;2.50;;;13.60;52.20;;;;;;4426902;32;20158;-71
2021/03/22 11:29:28;;;;;;;4.10;1.87;;;11.90;55.10;;;;;;4424766;32;20399;-71
2021/03/22 11:32:01;;;;;;;3.70;1.50;;;11.80;56.40;;;;;;4426153;32;20558;-70
2021/03/22 11:34:45;;;;;;;3.97;1.50;;;11.70;53.20;;;;;;4423818;32;20159;-73
2021/03/22 11:37:23;;;;;;;5.70;1.60;;;11.40;52.50;;;;;;4396950;32;20206;-72
2021/03/22 11:40:14;;;;;;;4.23;1.67;;;10.70;52.80;;;;;;4420801;32;20193;-70
2021/03/22 11:43:20;;;;;;;3.57;1.60;;;10.90;54.90;;;;;;4425759;32;20202;-70
2021/03/22 11:45:47;;;;;;;4.30;1.40;;;10.90;55.80;;;;;;4429369;32;20252;-71
2021/03/22 11:48:20;;;;;;;6.70;2.20;;;10.50;53.60;;;;;;4410473;32;20223;-72
2021/03/22 11:50:47;;;;;;;8.37;2.30;;;9.70;55.20;;;;;;4423297;32;20221;-71
2021/03/22 11:53:21;;;;;;;5.97;2.40;;;9.40;59.30;;;;;;4423856;32;20155;-73
2021/03/22 11:55:56;;;;;;;6.60;2.27;;;9.20;57.60;;;;;;4424116;32;20170;-71
2021/03/22 11:58:28;;;;;;;5.30;1.67;;;8.80;59.20;;;;;;4425759;32;20173;-71
2021/03/22 12:01:10;;;;;;;4.97;2.10;;;8.50;58.90;;;;;;4423329;32;20543;-71
2021/03/22 12:03:37;;;;;;;3.00;1.80;;;8.40;59.50;;;;;;4425787;32;20211;-71
2021/03/22 12:06:13;;;;;;;3.63;1.77;;;7.90;58.10;;;;;;4424984;32;20150;-71
2021/03/22 12:08:51;;;;;;;3.83;1.70;;;8.10;59.40;;;;;;4424506;32;20141;-71
2021/03/22 12:11:24;;;;;;;3.17;1.43;;;9.10;56.60;;;;;;4423867;32;20151;-71
2021/03/22 12:13:52;;;;;;;4.30;1.60;;;9.30;56.50;;;;;;4424891;32;20230;-71
2021/03/22 12:16:23;;;;;;;3.37;1.47;;;9.70;56.30;;;;;;4424256;32;20162;-72
2021/03/22 12:18:51;;;;;;;7.03;1.50;;;10.40;54.20;;;;;;4425952;32;20143;-71
2021/03/22 12:21:19;;;;;;;3.93;1.53;;;11.40;51.50;;;;;;4425639;32;20169;-72
2021/03/22 12:23:46;;;;;;;4.43;1.60;;;11.70;49.60;;;;;;4423460;32;20151;-72
2021/03/22 12:26:19;;;;;;;4.87;1.50;;;11.30;50.40;;;;;;4423639;32;20147;-69
2021/03/22 12:28:54;;;;;;;5.13;1.43;;;10.80;52.00;;;;;;4424930;32;20158;-72
2021/03/22 12:31:27;;;;;;;5.13;1.50;;;10.70;52.10;;;;;;4422238;32;20204;-71
2021/03/22 12:33:59;;;;;;;3.33;1.53;;;10.40;52.30;;;;;;4425501;32;20220;-72
2021/03/22 12:36:26;;;;;;;7.37;1.60;;;10.00;52.20;;;;;;4421541;32;20254;-72
2021/03/22 12:38:53;;;;;;;4.00;1.70;;;9.70;53.00;;;;;;4421537;32;20166;-71
2021/03/22 12:41:26;;;;;;;3.33;1.50;;;9.10;53.10;;;;;;4421801;32;20174;-72
2021/03/22 12:43:53;;;;;;;5.40;1.70;;;8.50;53.60;;;;;;4421695;32;20159;-71
2021/03/22 12:46:20;;;;;;;5.90;1.80;;;9.40;54.00;;;;;;4421561;32;20159;-71
2021/03/22 12:48:46;;;;;;;2.73;1.50;;;10.30;50.70;;;;;;4425444;32;20150;-71
2021/03/22 12:51:13;;;;;;;2.43;1.50;;;11.30;50.70;;;;;;4426363;32;20159;-71
2021/03/22 12:53:39;;;;;;;4.37;1.60;;;12.60;47.70;;;;;;4426990;32;20177;-71
2021/03/22 12:56:06;;;;;;;6.67;1.70;;;13.10;44.90;;;;;;4426049;32;20500;-71
2021/03/22 12:58:32;;;;;;;4.43;1.50;;;12.20;44.40;;;;;;4428477;32;20177;-71
2021/03/22 13:00:59;;;;;;;4.07;1.40;;;10.40;47.20;;;;;;4427272;32;20174;-72
2021/03/22 13:03:28;;;;;;;3.10;1.60;;;9.60;49.60;;;;;;4426300;32;20185;-70
2021/03/22 13:05:56;;;;;;;5.50;1.30;;;9.40;51.20;;;;;;4425102;32;20240;-71
2021/03/22 13:08:28;;;;;;;3.43;1.57;;;9.40;52.00;;;;;;4426150;32;20215;-71
2021/03/22 13:10:56;;;;;;;2.97;1.47;;;8.60;52.40;;;;;;4426625;32;20555;-71
2021/03/22 13:13:23;;;;;;;4.83;1.43;;;8.10;53.90;;;;;;4427254;32;20542;-71
2021/03/22 13:15:55;;;;;;;4.33;1.60;;;7.40;53.90;;;;;;4425840;32;20209;-71
2021/03/22 13:18:26;;;;;;;4.30;1.70;;;6.90;55.60;;;;;;4426759;32;20170;-71
2021/03/22 13:21:06;;;;;;;2.53;1.30;;;7.00;56.40;;;;;;4426860;32;20150;-71
2021/03/22 13:23:33;;;;;;;2.73;1.53;;;7.10;56.20;;;;;;4428684;32;20141;-71
2021/03/22 13:25:59;;;;;;;3.27;1.40;;;6.90;56.90;;;;;;4428080;32;20195;-71
2021/03/22 13:28:32;;;;;;;4.23;1.50;;;6.70;57.00;;;;;;4427931;32;20146;-72
2021/03/22 13:31:01;;;;;;;3.47;1.50;;;6.90;58.40;;;;;;4427839;32;20166;-71
2021/03/22 13:33:32;;;;;;;5.07;1.70;;;7.20;57.50;;;;;;4427899;32;20510;-70